sensor_id;sensor_type;location;lat;lon;timestamp;temperature;humidity
6355;DHT22;3210;48.708;9.030;2023-08-07T00:01:46;11.10;99.90
6355;DHT22;3210;48.708;9.030;2023-08-07T00:04:13;11.00;99.90
6355;DHT22;3210;48.708;9.030;2023-08-07T00:06:41;11.00;74.60
6355;DHT22;3210;48.708;9.030;2023-08-07T00:09:08;11.00;99.90
6355;DHT22;3210;48.708;9.030;2023-08-07T00:11:34;11.00;99.90
6355;DHT22;3210;48.708;9.030;2023-08-07T00:14:01;10.90;99.90
6355;DHT22;3210;48.708;9.030;2023-08-07T00:16:28;10.90;99.90
6355;DHT22;3210;48.708;9.030;2023-08-07T00:18:55;10.80;99.90
6355;DHT22;3210;48.708;9.030;2023-08-07T00:21:23;10.80;99.90
6355;DHT22;3210;48.708;9.030;2023-08-07T00:23:51;10.80;99.90
6355;DHT22;3210;48.708;9.030;2023-08-07T00:26:18;10.80;99.90
6355;DHT22;3210;48.708;9.030;2023-08-07T00:28:45;10.80;99.90
6355;DHT22;3210;48.708;9.030;2023-08-07T00:31:11;10.80;99.90
6355;DHT22;3210;48.708;9.030;2023-08-07T00:33:38;10.80;99.90
6355;DHT22;3210;48.708;9.030;2023-08-07T00:36:05;10.70;99.90
6355;DHT22;3210;48.708;9.030;2023-08-07T00:38:32;10.70;99.90
6355;DHT22;3210;48.708;9.030;2023-08-07T00:41:00;10.90;99.90
6355;DHT22;3210;48.708;9.030;2023-08-07T00:43:27;10.60;99.90
6355;DHT22;3210;48.708;9.030;2023-08-07T00:45:54;10.70;99.90
6355;DHT22;3210;48.708;9.030;2023-08-07T00:48:21;10.70;99.90
6355;DHT22;3210;48.708;9.030;2023-08-07T00:50:48;10.80;99.90
6355;DHT22;3210;48.708;9.030;2023-08-07T00:53:16;10.60;99.90
6355;DHT22;3210;48.708;9.030;2023-08-07T00:55:43;10.70;99.90
6355;DHT22;3210;48.708;9.030;2023-08-07T00:58:12;10.70;99.90
6355;DHT22;3210;48.708;9.030;2023-08-07T01:00:38;10.80;99.90
6355;DHT22;3210;48.708;9.030;2023-08-07T01:03:07;10.80;99.90
6355;DHT22;3210;48.708;9.030;2023-08-07T01:05:34;10.80;99.90
6355;DHT22;3210;48.708;9.030;2023-08-07T01:08:01;10.90;24.10
6355;DHT22;3210;48.708;9.030;2023-08-07T01:10:38;10.90;1.00
6355;DHT22;3210;48.708;9.030;2023-08-07T01:13:14;10.90;9.60
6355;DHT22;3210;48.708;9.030;2023-08-07T01:15:42;11.00;1.00
6355;DHT22;3210;48.708;9.030;2023-08-07T01:18:10;11.00;1.00
6355;DHT22;3210;48.708;9.030;2023-08-07T01:20:38;11.00;1.00
6355;DHT22;3210;48.708;9.030;2023-08-07T01:23:06;11.00;1.00
6355;DHT22;3210;48.708;9.030;2023-08-07T01:25:33;11.00;1.00
6355;DHT22;3210;48.708;9.030;2023-08-07T01:28:08;11.00;1.00
6355;DHT22;3210;48.708;9.030;2023-08-07T01:30:42;11.00;1.00
6355;DHT22;3210;48.708;9.030;2023-08-07T01:33:14;11.00;1.00
6355;DHT22;3210;48.708;9.030;2023-08-07T01:35:46;11.00;1.00
6355;DHT22;3210;48.708;9.030;2023-08-07T01:38:15;11.00;1.00
6355;DHT22;3210;48.708;9.030;2023-08-07T01:40:43;11.00;1.00
6355;DHT22;3210;48.708;9.030;2023-08-07T01:43:10;11.00;1.00
6355;DHT22;3210;48.708;9.030;2023-08-07T01:45:37;10.90;1.00
6355;DHT22;3210;48.708;9.030;2023-08-07T01:48:04;11.00;8.90
6355;DHT22;3210;48.708;9.030;2023-08-07T01:50:31;11.00;1.00
6355;DHT22;3210;48.708;9.030;2023-08-07T01:52:58;11.00;1.00
6355;DHT22;3210;48.708;9.030;2023-08-07T01:55:27;11.00;1.00
6355;DHT22;3210;48.708;9.030;2023-08-07T01:57:54;11.10;1.00
6355;DHT22;3210;48.708;9.030;2023-08-07T02:00:20;11.10;1.00
6355;DHT22;3210;48.708;9.030;2023-08-07T02:02:48;11.10;1.00
6355;DHT22;3210;48.708;9.030;2023-08-07T02:05:15;11.20;1.00
6355;DHT22;3210;48.708;9.030;2023-08-07T02:07:42;11.10;1.00
6355;DHT22;3210;48.708;9.030;2023-08-07T02:10:09;11.20;1.00
6355;DHT22;3210;48.708;9.030;2023-08-07T02:12:37;11.10;1.00
6355;DHT22;3210;48.708;9.030;2023-08-07T02:15:05;11.10;1.00
6355;DHT22;3210;48.708;9.030;2023-08-07T02:17:32;11.10;1.00
6355;DHT22;3210;48.708;9.030;2023-08-07T02:19:59;11.10;1.00
6355;DHT22;3210;48.708;9.030;2023-08-07T02:22:26;11.10;1.00
6355;DHT22;3210;48.708;9.030;2023-08-07T02:24:52;11.10;1.00
6355;DHT22;3210;48.708;9.030;2023-08-07T02:27:19;11.20;1.00
6355;DHT22;3210;48.708;9.030;2023-08-07T02:29:47;11.20;99.90
6355;DHT22;3210;48.708;9.030;2023-08-07T02:32:16;11.10;99.90
6355;DHT22;3210;48.708;9.030;2023-08-07T02:34:43;11.10;99.90
6355;DHT22;3210;48.708;9.030;2023-08-07T02:37:10;11.20;99.90
6355;DHT22;3210;48.708;9.030;2023-08-07T02:39:37;11.20;99.90
6355;DHT22;3210;48.708;9.030;2023-08-07T02:42:04;11.20;99.90
6355;DHT22;3210;48.708;9.030;2023-08-07T02:44:31;11.10;99.90
6355;DHT22;3210;48.708;9.030;2023-08-07T02:46:59;11.10;99.90
6355;DHT22;3210;48.708;9.030;2023-08-07T02:49:26;11.10;99.90
6355;DHT22;3210;48.708;9.030;2023-08-07T02:51:53;11.10;99.90
6355;DHT22;3210;48.708;9.030;2023-08-07T02:54:20;11.10;99.90
6355;DHT22;3210;48.708;9.030;2023-08-07T02:56:46;11.10;99.90
6355;DHT22;3210;48.708;9.030;2023-08-07T02:59:14;11.00;99.90
6355;DHT22;3210;48.708;9.030;2023-08-07T03:01:41;11.00;99.90
6355;DHT22;3210;48.708;9.030;2023-08-07T03:04:10;10.90;99.90
6355;DHT22;3210;48.708;9.030;2023-08-07T03:06:37;10.90;99.90
6355;DHT22;3210;48.708;9.030;2023-08-07T03:09:03;10.90;99.90
6355;DHT22;3210;48.708;9.030;2023-08-07T03:11:30;10.80;99.90
6355;DHT22;3210;48.708;9.030;2023-08-07T03:13:57;10.90;99.90
6355;DHT22;3210;48.708;9.030;2023-08-07T03:16:24;10.90;99.90
6355;DHT22;3210;48.708;9.030;2023-08-07T03:18:50;11.00;99.90
6355;DHT22;3210;48.708;9.030;2023-08-07T03:21:18;11.00;99.90
6355;DHT22;3210;48.708;9.030;2023-08-07T03:23:45;10.90;99.90
6355;DHT22;3210;48.708;9.030;2023-08-07T03:26:12;10.80;99.90
6355;DHT22;3210;48.708;9.030;2023-08-07T03:28:39;10.80;99.90
6355;DHT22;3210;48.708;9.030;2023-08-07T03:31:06;10.80;99.90
6355;DHT22;3210;48.708;9.030;2023-08-07T03:33:33;10.90;99.90
6355;DHT22;3210;48.708;9.030;2023-08-07T03:36:00;10.90;99.90
6355;DHT22;3210;48.708;9.030;2023-08-07T03:38:28;10.90;99.90
6355;DHT22;3210;48.708;9.030;2023-08-07T03:40:55;10.80;99.90
6355;DHT22;3210;48.708;9.030;2023-08-07T03:43:22;10.80;99.90
6355;DHT22;3210;48.708;9.030;2023-08-07T03:45:54;10.90;99.90
6355;DHT22;3210;48.708;9.030;2023-08-07T03:48:21;10.80;99.90
6355;DHT22;3210;48.708;9.030;2023-08-07T03:50:48;10.70;99.90
6355;DHT22;3210;48.708;9.030;2023-08-07T03:53:15;10.70;99.90
6355;DHT22;3210;48.708;9.030;2023-08-07T03:55:43;10.70;99.90
6355;DHT22;3210;48.708;9.030;2023-08-07T03:58:10;10.70;99.90
6355;DHT22;3210;48.708;9.030;2023-08-07T04:00:37;10.70;99.90
6355;DHT22;3210;48.708;9.030;2023-08-07T04:03:04;10.60;99.90
6355;DHT22;3210;48.708;9.030;2023-08-07T04:05:33;10.50;99.90
6355;DHT22;3210;48.708;9.030;2023-08-07T04:07:59;10.60;99.90
6355;DHT22;3210;48.708;9.030;2023-08-07T04:10:26;10.80;99.90
6355;DHT22;3210;48.708;9.030;2023-08-07T04:12:54;10.60;99.90
6355;DHT22;3210;48.708;9.030;2023-08-07T04:15:21;10.60;99.90
6355;DHT22;3210;48.708;9.030;2023-08-07T04:17:48;10.70;99.90
6355;DHT22;3210;48.708;9.030;2023-08-07T04:20:15;10.70;99.90
6355;DHT22;3210;48.708;9.030;2023-08-07T04:22:42;10.60;99.90
6355;DHT22;3210;48.708;9.030;2023-08-07T04:25:10;10.60;99.90
6355;DHT22;3210;48.708;9.030;2023-08-07T04:27:37;10.50;99.90
6355;DHT22;3210;48.708;9.030;2023-08-07T04:30:06;10.50;99.90
6355;DHT22;3210;48.708;9.030;2023-08-07T04:32:33;10.50;99.90
6355;DHT22;3210;48.708;9.030;2023-08-07T04:35:00;10.50;99.90
6355;DHT22;3210;48.708;9.030;2023-08-07T04:37:26;10.50;99.90
6355;DHT22;3210;48.708;9.030;2023-08-07T04:39:55;10.50;99.90
6355;DHT22;3210;48.708;9.030;2023-08-07T04:42:22;10.50;99.90
6355;DHT22;3210;48.708;9.030;2023-08-07T04:44:49;10.50;99.90
6355;DHT22;3210;48.708;9.030;2023-08-07T04:47:17;10.50;99.90
6355;DHT22;3210;48.708;9.030;2023-08-07T04:49:44;10.60;99.90
6355;DHT22;3210;48.708;9.030;2023-08-07T04:52:11;10.60;99.90
6355;DHT22;3210;48.708;9.030;2023-08-07T04:54:37;10.60;99.90
6355;DHT22;3210;48.708;9.030;2023-08-07T04:57:04;10.60;99.90
6355;DHT22;3210;48.708;9.030;2023-08-07T04:59:31;10.60;99.90
6355;DHT22;3210;48.708;9.030;2023-08-07T05:01:58;10.60;99.90
6355;DHT22;3210;48.708;9.030;2023-08-07T05:04:26;10.70;99.90
6355;DHT22;3210;48.708;9.030;2023-08-07T05:06:53;10.60;99.90
6355;DHT22;3210;48.708;9.030;2023-08-07T05:09:19;10.80;99.90
6355;DHT22;3210;48.708;9.030;2023-08-07T05:11:46;10.80;99.90
6355;DHT22;3210;48.708;9.030;2023-08-07T05:14:12;11.00;99.90
6355;DHT22;3210;48.708;9.030;2023-08-07T05:16:39;11.00;99.90
6355;DHT22;3210;48.708;9.030;2023-08-07T05:19:06;11.00;99.90
6355;DHT22;3210;48.708;9.030;2023-08-07T05:21:34;11.00;99.90
6355;DHT22;3210;48.708;9.030;2023-08-07T05:24:01;11.10;99.90
6355;DHT22;3210;48.708;9.030;2023-08-07T05:26:28;11.20;99.90
6355;DHT22;3210;48.708;9.030;2023-08-07T05:28:55;11.20;99.90
6355;DHT22;3210;48.708;9.030;2023-08-07T05:31:23;11.40;99.90
6355;DHT22;3210;48.708;9.030;2023-08-07T05:33:50;11.40;99.90
6355;DHT22;3210;48.708;9.030;2023-08-07T05:36:17;11.50;99.90
6355;DHT22;3210;48.708;9.030;2023-08-07T05:38:45;11.60;99.90
6355;DHT22;3210;48.708;9.030;2023-08-07T05:41:12;11.70;99.90
6355;DHT22;3210;48.708;9.030;2023-08-07T05:43:39;11.70;82.00
6355;DHT22;3210;48.708;9.030;2023-08-07T05:46:05;11.80;99.90
6355;DHT22;3210;48.708;9.030;2023-08-07T05:48:32;11.90;99.90
6355;DHT22;3210;48.708;9.030;2023-08-07T05:50:59;11.90;99.90
6355;DHT22;3210;48.708;9.030;2023-08-07T05:53:26;12.10;50.90
6355;DHT22;3210;48.708;9.030;2023-08-07T05:55:54;12.00;70.10
6355;DHT22;3210;48.708;9.030;2023-08-07T05:58:21;12.10;59.10
6355;DHT22;3210;48.708;9.030;2023-08-07T06:00:48;12.20;64.00
6355;DHT22;3210;48.708;9.030;2023-08-07T06:03:15;12.20;15.60
6355;DHT22;3210;48.708;9.030;2023-08-07T06:05:42;12.20;40.00
6355;DHT22;3210;48.708;9.030;2023-08-07T06:08:08;12.20;1.00
6355;DHT22;3210;48.708;9.030;2023-08-07T06:10:35;12.20;25.80
6355;DHT22;3210;48.708;9.030;2023-08-07T06:13:03;12.20;23.10
6355;DHT22;3210;48.708;9.030;2023-08-07T06:15:32;12.40;21.50
6355;DHT22;3210;48.708;9.030;2023-08-07T06:17:59;12.40;10.90
6355;DHT22;3210;48.708;9.030;2023-08-07T06:20:26;12.40;1.00
6355;DHT22;3210;48.708;9.030;2023-08-07T06:22:53;12.40;1.00
6355;DHT22;3210;48.708;9.030;2023-08-07T06:25:19;12.40;1.00
6355;DHT22;3210;48.708;9.030;2023-08-07T06:27:46;12.40;1.00
6355;DHT22;3210;48.708;9.030;2023-08-07T06:30:14;12.50;1.00
6355;DHT22;3210;48.708;9.030;2023-08-07T06:32:41;12.50;1.00
6355;DHT22;3210;48.708;9.030;2023-08-07T06:35:09;12.50;1.00
6355;DHT22;3210;48.708;9.030;2023-08-07T06:37:35;12.50;1.00
6355;DHT22;3210;48.708;9.030;2023-08-07T06:40:02;12.60;1.00
6355;DHT22;3210;48.708;9.030;2023-08-07T06:42:30;12.70;1.00
6355;DHT22;3210;48.708;9.030;2023-08-07T06:44:57;12.70;1.00
6355;DHT22;3210;48.708;9.030;2023-08-07T06:47:25;12.70;1.00
6355;DHT22;3210;48.708;9.030;2023-08-07T06:49:52;12.70;1.00
6355;DHT22;3210;48.708;9.030;2023-08-07T06:52:19;12.80;1.00
6355;DHT22;3210;48.708;9.030;2023-08-07T06:54:45;12.90;1.00
6355;DHT22;3210;48.708;9.030;2023-08-07T06:57:12;13.00;1.00
6355;DHT22;3210;48.708;9.030;2023-08-07T06:59:39;13.00;1.00
6355;DHT22;3210;48.708;9.030;2023-08-07T07:02:06;13.20;1.00
6355;DHT22;3210;48.708;9.030;2023-08-07T07:04:34;13.30;1.00
6355;DHT22;3210;48.708;9.030;2023-08-07T07:07:02;13.40;1.00
6355;DHT22;3210;48.708;9.030;2023-08-07T07:09:29;13.40;1.00
6355;DHT22;3210;48.708;9.030;2023-08-07T07:11:55;13.50;1.00
6355;DHT22;3210;48.708;9.030;2023-08-07T07:14:23;13.40;1.00
6355;DHT22;3210;48.708;9.030;2023-08-07T07:16:50;13.50;1.00
6355;DHT22;3210;48.708;9.030;2023-08-07T07:19:17;13.40;1.00
6355;DHT22;3210;48.708;9.030;2023-08-07T07:21:45;13.40;1.00
6355;DHT22;3210;48.708;9.030;2023-08-07T07:24:12;13.60;1.00
6355;DHT22;3210;48.708;9.030;2023-08-07T07:26:38;13.70;1.00
6355;DHT22;3210;48.708;9.030;2023-08-07T07:29:05;13.80;1.00
6355;DHT22;3210;48.708;9.030;2023-08-07T07:31:32;13.90;1.00
6355;DHT22;3210;48.708;9.030;2023-08-07T07:33:59;13.90;1.00
6355;DHT22;3210;48.708;9.030;2023-08-07T07:36:26;14.00;1.00
6355;DHT22;3210;48.708;9.030;2023-08-07T07:38:54;14.20;1.00
6355;DHT22;3210;48.708;9.030;2023-08-07T07:41:22;14.30;1.00
6355;DHT22;3210;48.708;9.030;2023-08-07T07:43:49;14.40;1.00
6355;DHT22;3210;48.708;9.030;2023-08-07T07:46:15;14.60;1.00
6355;DHT22;3210;48.708;9.030;2023-08-07T07:48:42;14.70;1.00
6355;DHT22;3210;48.708;9.030;2023-08-07T07:51:09;14.90;1.00
6355;DHT22;3210;48.708;9.030;2023-08-07T07:53:36;15.00;1.00
6355;DHT22;3210;48.708;9.030;2023-08-07T07:56:04;15.10;1.00
6355;DHT22;3210;48.708;9.030;2023-08-07T07:58:31;15.20;1.00
6355;DHT22;3210;48.708;9.030;2023-08-07T08:00:58;15.10;1.00
6355;DHT22;3210;48.708;9.030;2023-08-07T08:03:24;15.20;1.00
6355;DHT22;3210;48.708;9.030;2023-08-07T08:05:52;15.20;1.00
6355;DHT22;3210;48.708;9.030;2023-08-07T08:08:19;15.10;1.00
6355;DHT22;3210;48.708;9.030;2023-08-07T08:10:46;15.10;1.00
6355;DHT22;3210;48.708;9.030;2023-08-07T08:13:15;15.30;1.00
6355;DHT22;3210;48.708;9.030;2023-08-07T08:15:42;15.30;1.00
6355;DHT22;3210;48.708;9.030;2023-08-07T08:18:09;15.20;1.00
6355;DHT22;3210;48.708;9.030;2023-08-07T08:20:35;15.00;1.00
6355;DHT22;3210;48.708;9.030;2023-08-07T08:23:02;15.00;1.00
6355;DHT22;3210;48.708;9.030;2023-08-07T08:25:31;15.00;1.00
6355;DHT22;3210;48.708;9.030;2023-08-07T08:27:58;15.20;1.00
6355;DHT22;3210;48.708;9.030;2023-08-07T08:30:28;15.40;1.00
6355;DHT22;3210;48.708;9.030;2023-08-07T08:32:55;15.50;1.00
6355;DHT22;3210;48.708;9.030;2023-08-07T08:35:22;15.60;1.00
6355;DHT22;3210;48.708;9.030;2023-08-07T08:37:49;15.60;1.00
6355;DHT22;3210;48.708;9.030;2023-08-07T08:40:15;15.90;1.00
6355;DHT22;3210;48.708;9.030;2023-08-07T08:42:45;16.00;1.00
6355;DHT22;3210;48.708;9.030;2023-08-07T08:45:13;16.20;1.00
6355;DHT22;3210;48.708;9.030;2023-08-07T08:47:43;16.30;1.00
6355;DHT22;3210;48.708;9.030;2023-08-07T08:50:13;16.40;1.00
6355;DHT22;3210;48.708;9.030;2023-08-07T08:52:42;16.20;1.00
6355;DHT22;3210;48.708;9.030;2023-08-07T08:55:10;16.10;1.00
6355;DHT22;3210;48.708;9.030;2023-08-07T08:57:37;16.20;1.00
6355;DHT22;3210;48.708;9.030;2023-08-07T09:00:05;16.30;1.00
6355;DHT22;3210;48.708;9.030;2023-08-07T09:02:45;16.40;1.00
6355;DHT22;3210;48.708;9.030;2023-08-07T09:05:13;16.40;1.00
6355;DHT22;3210;48.708;9.030;2023-08-07T09:07:40;16.00;1.00
6355;DHT22;3210;48.708;9.030;2023-08-07T09:10:08;15.90;1.00
6355;DHT22;3210;48.708;9.030;2023-08-07T09:12:40;16.10;1.00
6355;DHT22;3210;48.708;9.030;2023-08-07T09:15:09;16.20;1.00
6355;DHT22;3210;48.708;9.030;2023-08-07T09:17:39;16.40;1.00
6355;DHT22;3210;48.708;9.030;2023-08-07T09:20:09;16.30;1.00
6355;DHT22;3210;48.708;9.030;2023-08-07T09:22:40;16.40;1.00
6355;DHT22;3210;48.708;9.030;2023-08-07T09:25:08;16.90;1.00
6355;DHT22;3210;48.708;9.030;2023-08-07T09:27:36;17.20;1.00
6355;DHT22;3210;48.708;9.030;2023-08-07T09:30:05;17.50;1.00
6355;DHT22;3210;48.708;9.030;2023-08-07T09:32:32;17.40;1.00
6355;DHT22;3210;48.708;9.030;2023-08-07T09:35:02;17.30;1.00
6355;DHT22;3210;48.708;9.030;2023-08-07T09:37:30;17.20;1.00
6355;DHT22;3210;48.708;9.030;2023-08-07T09:40:00;16.90;1.00
6355;DHT22;3210;48.708;9.030;2023-08-07T09:42:30;16.70;1.00
6355;DHT22;3210;48.708;9.030;2023-08-07T09:44:59;16.50;1.00
6355;DHT22;3210;48.708;9.030;2023-08-07T09:47:27;16.50;1.00
6355;DHT22;3210;48.708;9.030;2023-08-07T09:49:55;16.20;1.00
6355;DHT22;3210;48.708;9.030;2023-08-07T09:52:24;16.10;1.00
6355;DHT22;3210;48.708;9.030;2023-08-07T09:54:56;16.10;1.00
6355;DHT22;3210;48.708;9.030;2023-08-07T09:57:24;16.00;1.00
6355;DHT22;3210;48.708;9.030;2023-08-07T09:59:52;16.00;1.00
6355;DHT22;3210;48.708;9.030;2023-08-07T10:02:19;16.00;1.00
6355;DHT22;3210;48.708;9.030;2023-08-07T10:04:47;15.90;1.00
6355;DHT22;3210;48.708;9.030;2023-08-07T10:07:15;15.90;1.00
6355;DHT22;3210;48.708;9.030;2023-08-07T10:09:42;15.90;1.00
6355;DHT22;3210;48.708;9.030;2023-08-07T10:12:11;16.00;1.00
6355;DHT22;3210;48.708;9.030;2023-08-07T10:14:40;16.30;1.00
6355;DHT22;3210;48.708;9.030;2023-08-07T10:17:07;16.50;1.00
6355;DHT22;3210;48.708;9.030;2023-08-07T10:19:34;16.50;1.00
6355;DHT22;3210;48.708;9.030;2023-08-07T10:22:02;16.40;1.00
6355;DHT22;3210;48.708;9.030;2023-08-07T10:24:30;16.50;1.00
6355;DHT22;3210;48.708;9.030;2023-08-07T10:26:58;16.70;1.00
6355;DHT22;3210;48.708;9.030;2023-08-07T10:29:27;16.70;1.00
6355;DHT22;3210;48.708;9.030;2023-08-07T10:31:56;16.60;1.00
6355;DHT22;3210;48.708;9.030;2023-08-07T10:34:24;16.50;1.00
6355;DHT22;3210;48.708;9.030;2023-08-07T10:36:51;16.50;1.00
6355;DHT22;3210;48.708;9.030;2023-08-07T10:39:18;16.60;1.00
6355;DHT22;3210;48.708;9.030;2023-08-07T10:41:46;16.80;1.00
6355;DHT22;3210;48.708;9.030;2023-08-07T10:44:20;17.20;1.00
6355;DHT22;3210;48.708;9.030;2023-08-07T10:46:49;17.10;1.00
6355;DHT22;3210;48.708;9.030;2023-08-07T10:49:30;16.90;1.00
6355;DHT22;3210;48.708;9.030;2023-08-07T10:51:58;16.60;1.00
6355;DHT22;3210;48.708;9.030;2023-08-07T10:54:25;16.40;1.00
6355;DHT22;3210;48.708;9.030;2023-08-07T10:56:53;16.30;1.00
6355;DHT22;3210;48.708;9.030;2023-08-07T10:59:20;16.50;1.00
6355;DHT22;3210;48.708;9.030;2023-08-07T11:01:53;16.70;1.00
6355;DHT22;3210;48.708;9.030;2023-08-07T11:04:22;16.70;1.00
6355;DHT22;3210;48.708;9.030;2023-08-07T11:06:51;17.00;1.00
6355;DHT22;3210;48.708;9.030;2023-08-07T11:09:18;17.00;1.00
6355;DHT22;3210;48.708;9.030;2023-08-07T11:11:46;17.00;1.00
6355;DHT22;3210;48.708;9.030;2023-08-07T11:14:14;17.00;1.00
6355;DHT22;3210;48.708;9.030;2023-08-07T11:16:43;16.80;1.00
6355;DHT22;3210;48.708;9.030;2023-08-07T11:19:12;16.80;1.00
6355;DHT22;3210;48.708;9.030;2023-08-07T11:21:40;16.60;1.00
6355;DHT22;3210;48.708;9.030;2023-08-07T11:24:08;16.60;1.00
6355;DHT22;3210;48.708;9.030;2023-08-07T11:26:35;16.50;1.00
6355;DHT22;3210;48.708;9.030;2023-08-07T11:29:02;16.50;1.00
6355;DHT22;3210;48.708;9.030;2023-08-07T11:31:28;16.50;1.00
6355;DHT22;3210;48.708;9.030;2023-08-07T11:33:56;16.40;1.00
6355;DHT22;3210;48.708;9.030;2023-08-07T11:36:26;16.30;1.00
6355;DHT22;3210;48.708;9.030;2023-08-07T11:38:53;16.10;1.00
6355;DHT22;3210;48.708;9.030;2023-08-07T11:41:19;16.10;1.00
6355;DHT22;3210;48.708;9.030;2023-08-07T11:43:46;15.90;1.00
6355;DHT22;3210;48.708;9.030;2023-08-07T11:46:14;15.70;1.00
6355;DHT22;3210;48.708;9.030;2023-08-07T11:48:42;15.50;1.00
6355;DHT22;3210;48.708;9.030;2023-08-07T11:51:09;15.50;1.00
6355;DHT22;3210;48.708;9.030;2023-08-07T11:53:39;15.40;1.00
6355;DHT22;3210;48.708;9.030;2023-08-07T11:56:07;15.40;1.00
6355;DHT22;3210;48.708;9.030;2023-08-07T11:58:36;15.30;1.00
6355;DHT22;3210;48.708;9.030;2023-08-07T12:01:04;15.40;1.00
6355;DHT22;3210;48.708;9.030;2023-08-07T12:03:32;15.30;1.00
6355;DHT22;3210;48.708;9.030;2023-08-07T12:06:03;15.20;1.00
6355;DHT22;3210;48.708;9.030;2023-08-07T12:08:34;15.20;1.00
6355;DHT22;3210;48.708;9.030;2023-08-07T12:11:05;15.30;1.00
6355;DHT22;3210;48.708;9.030;2023-08-07T12:13:32;15.30;1.00
6355;DHT22;3210;48.708;9.030;2023-08-07T12:16:01;15.00;1.00
6355;DHT22;3210;48.708;9.030;2023-08-07T12:18:30;14.60;1.00
6355;DHT22;3210;48.708;9.030;2023-08-07T12:20:58;14.50;1.00
6355;DHT22;3210;48.708;9.030;2023-08-07T12:23:25;14.30;1.00
6355;DHT22;3210;48.708;9.030;2023-08-07T12:25:53;14.10;1.00
6355;DHT22;3210;48.708;9.030;2023-08-07T12:28:21;14.10;1.00
6355;DHT22;3210;48.708;9.030;2023-08-07T12:30:48;14.30;1.00
6355;DHT22;3210;48.708;9.030;2023-08-07T12:33:16;14.40;1.00
6355;DHT22;3210;48.708;9.030;2023-08-07T12:35:43;14.80;53.90
6355;DHT22;3210;48.708;9.030;2023-08-07T12:38:10;15.00;4.50
6355;DHT22;3210;48.708;9.030;2023-08-07T12:40:39;15.30;88.20
6355;DHT22;3210;48.708;9.030;2023-08-07T12:43:06;15.50;1.00
6355;DHT22;3210;48.708;9.030;2023-08-07T12:45:35;15.60;1.00
6355;DHT22;3210;48.708;9.030;2023-08-07T12:48:02;15.60;1.00
6355;DHT22;3210;48.708;9.030;2023-08-07T12:50:29;15.60;1.00
6355;DHT22;3210;48.708;9.030;2023-08-07T12:52:56;15.50;1.00
6355;DHT22;3210;48.708;9.030;2023-08-07T12:55:24;15.50;1.00
6355;DHT22;3210;48.708;9.030;2023-08-07T12:57:52;15.50;1.00
6355;DHT22;3210;48.708;9.030;2023-08-07T13:00:19;15.50;1.00
6355;DHT22;3210;48.708;9.030;2023-08-07T13:02:48;15.40;1.00
6355;DHT22;3210;48.708;9.030;2023-08-07T13:05:16;15.40;1.00
6355;DHT22;3210;48.708;9.030;2023-08-07T13:07:44;15.50;1.00
6355;DHT22;3210;48.708;9.030;2023-08-07T13:10:12;15.70;1.00
6355;DHT22;3210;48.708;9.030;2023-08-07T13:12:40;15.80;1.00
6355;DHT22;3210;48.708;9.030;2023-08-07T13:15:09;15.90;1.00
6355;DHT22;3210;48.708;9.030;2023-08-07T13:17:38;16.00;1.00
6355;DHT22;3210;48.708;9.030;2023-08-07T13:20:08;16.20;1.00
6355;DHT22;3210;48.708;9.030;2023-08-07T13:22:35;16.10;1.00
6355;DHT22;3210;48.708;9.030;2023-08-07T13:25:01;16.10;1.00
6355;DHT22;3210;48.708;9.030;2023-08-07T13:27:29;16.10;1.00
6355;DHT22;3210;48.708;9.030;2023-08-07T13:29:56;16.20;1.00
6355;DHT22;3210;48.708;9.030;2023-08-07T13:32:23;16.20;1.00
6355;DHT22;3210;48.708;9.030;2023-08-07T13:34:49;16.30;1.00
6355;DHT22;3210;48.708;9.030;2023-08-07T13:37:18;16.40;1.00
6355;DHT22;3210;48.708;9.030;2023-08-07T13:39:45;16.60;1.00
6355;DHT22;3210;48.708;9.030;2023-08-07T13:42:13;16.90;1.00
6355;DHT22;3210;48.708;9.030;2023-08-07T13:44:40;17.10;1.00
6355;DHT22;3210;48.708;9.030;2023-08-07T13:47:07;17.40;1.00
6355;DHT22;3210;48.708;9.030;2023-08-07T13:49:35;17.70;1.00
6355;DHT22;3210;48.708;9.030;2023-08-07T13:52:02;17.90;1.00
6355;DHT22;3210;48.708;9.030;2023-08-07T13:54:31;18.20;1.00
6355;DHT22;3210;48.708;9.030;2023-08-07T13:56:58;18.30;1.00
6355;DHT22;3210;48.708;9.030;2023-08-07T13:59:24;18.40;1.00
6355;DHT22;3210;48.708;9.030;2023-08-07T14:01:52;18.70;1.00
6355;DHT22;3210;48.708;9.030;2023-08-07T14:04:20;18.90;1.00
6355;DHT22;3210;48.708;9.030;2023-08-07T14:06:47;19.00;1.00
6355;DHT22;3210;48.708;9.030;2023-08-07T14:09:13;19.10;1.00
6355;DHT22;3210;48.708;9.030;2023-08-07T14:11:41;19.00;1.00
6355;DHT22;3210;48.708;9.030;2023-08-07T14:14:08;18.80;1.00
6355;DHT22;3210;48.708;9.030;2023-08-07T14:16:35;18.50;1.00
6355;DHT22;3210;48.708;9.030;2023-08-07T14:19:02;18.40;1.00
6355;DHT22;3210;48.708;9.030;2023-08-07T14:21:28;18.50;1.00
6355;DHT22;3210;48.708;9.030;2023-08-07T14:23:55;18.80;1.00
6355;DHT22;3210;48.708;9.030;2023-08-07T14:26:22;19.00;1.00
6355;DHT22;3210;48.708;9.030;2023-08-07T14:28:50;19.00;1.00
6355;DHT22;3210;48.708;9.030;2023-08-07T14:31:17;19.10;1.00
6355;DHT22;3210;48.708;9.030;2023-08-07T14:33:44;19.00;1.00
6355;DHT22;3210;48.708;9.030;2023-08-07T14:36:10;18.70;1.00
6355;DHT22;3210;48.708;9.030;2023-08-07T14:38:37;18.50;1.00
6355;DHT22;3210;48.708;9.030;2023-08-07T14:41:04;18.10;1.00
6355;DHT22;3210;48.708;9.030;2023-08-07T14:43:31;17.90;1.00
6355;DHT22;3210;48.708;9.030;2023-08-07T14:45:59;17.80;1.00
6355;DHT22;3210;48.708;9.030;2023-08-07T14:48:26;17.40;1.00
6355;DHT22;3210;48.708;9.030;2023-08-07T14:50:53;17.10;1.00
6355;DHT22;3210;48.708;9.030;2023-08-07T14:53:21;16.90;1.00
6355;DHT22;3210;48.708;9.030;2023-08-07T14:55:48;16.60;1.00
6355;DHT22;3210;48.708;9.030;2023-08-07T14:58:14;16.50;1.00
6355;DHT22;3210;48.708;9.030;2023-08-07T15:00:41;16.40;1.00
6355;DHT22;3210;48.708;9.030;2023-08-07T15:03:09;16.40;1.00
6355;DHT22;3210;48.708;9.030;2023-08-07T15:05:36;16.30;1.00
6355;DHT22;3210;48.708;9.030;2023-08-07T15:08:03;16.50;1.00
6355;DHT22;3210;48.708;9.030;2023-08-07T15:10:30;16.50;1.00
6355;DHT22;3210;48.708;9.030;2023-08-07T15:12:57;16.90;1.00
6355;DHT22;3210;48.708;9.030;2023-08-07T15:15:24;17.40;1.00
6355;DHT22;3210;48.708;9.030;2023-08-07T15:17:51;17.50;1.00
6355;DHT22;3210;48.708;9.030;2023-08-07T15:20:19;17.50;1.00
6355;DHT22;3210;48.708;9.030;2023-08-07T15:22:46;17.60;1.00
6355;DHT22;3210;48.708;9.030;2023-08-07T15:25:14;17.50;1.00
6355;DHT22;3210;48.708;9.030;2023-08-07T15:27:41;17.50;1.00
6355;DHT22;3210;48.708;9.030;2023-08-07T15:30:08;17.50;1.00
6355;DHT22;3210;48.708;9.030;2023-08-07T15:32:36;17.30;1.00
6355;DHT22;3210;48.708;9.030;2023-08-07T15:35:04;17.30;1.00
6355;DHT22;3210;48.708;9.030;2023-08-07T15:37:32;17.20;1.00
6355;DHT22;3210;48.708;9.030;2023-08-07T15:39:58;17.20;1.00
6355;DHT22;3210;48.708;9.030;2023-08-07T15:42:25;17.40;1.00
6355;DHT22;3210;48.708;9.030;2023-08-07T15:44:52;17.30;1.00
6355;DHT22;3210;48.708;9.030;2023-08-07T15:47:19;17.30;1.00
6355;DHT22;3210;48.708;9.030;2023-08-07T15:49:46;17.30;1.00
6355;DHT22;3210;48.708;9.030;2023-08-07T15:52:14;17.30;1.00
6355;DHT22;3210;48.708;9.030;2023-08-07T15:54:42;17.20;1.00
6355;DHT22;3210;48.708;9.030;2023-08-07T15:57:11;17.20;1.00
6355;DHT22;3210;48.708;9.030;2023-08-07T15:59:38;17.30;1.00
6355;DHT22;3210;48.708;9.030;2023-08-07T16:02:05;17.30;1.00
6355;DHT22;3210;48.708;9.030;2023-08-07T16:04:33;17.30;1.00
6355;DHT22;3210;48.708;9.030;2023-08-07T16:07:00;17.40;1.00
6355;DHT22;3210;48.708;9.030;2023-08-07T16:09:27;17.40;1.00
6355;DHT22;3210;48.708;9.030;2023-08-07T16:11:55;17.50;1.00
6355;DHT22;3210;48.708;9.030;2023-08-07T16:14:22;17.70;1.00